Portada
METAR-TAF:

METAR-TAF

Aeroports :

Bandar Abbas, Iran

latitud: 27-13N, longitud: 056-22E, altitud: 10 m

Observació

L'informe es va fer fa 36 minuts, a les 16:00 UTC
Vent 8 kt del Oest
Temperatura 26°C
Humitat 54%
Pressió 1014 hPa
Visibilitat 10 km o més
sense núvols per sota de 1500 mi sense presència de cumulonimbus.

METAR: OIKB 011600Z 27008KT CAVOK 26/16 Q1013 A2993

Hora: 20:06 (16:36 UTC)

Pronòstic

L'informe es va fer fa 5 hores i 26 minuts, a les 11:10 UTC
Pronòstic vàlid del 01 a les 12 UTC al 02 a les 18 UTC
Vent 6 kt del Nord/Nord-Est
Visibilitat: 8000 m
Temporalment
l' 01 a les 12 UTC al 01 a les 17 UTC
Vent 8 kt del Sud-Oest
Temporalment
l' 02 a les 08 UTC al 02 a les 17 UTC
Vent 8 kt del Sud-Oest

TAF: OIKB 011110Z 0112/0218 03006KT 8000 NSC TEMPO 0112/0117 23008KT TEMPO 0208/0217 23008KT

Observacions i pronòstics meteorològics de més de 4000 aeroports (METAR i TAF).

Les estacions disponibles són els punts grocs i vermells al mapa.

Posi el ratolí al punt desitjat per veure el nom de l'estació.

Feu clic per veure les observacions i els pronòstics meteorològics.

Per canviar el mapa: feu clic els botons verds amb una creu de color negre per apropar; al botó verd amb un guió per allunyar la imatge; o en les fletxes verdes per a mapes adjacents.


METAR-TAF: